createdAt,value
2018-04-13T00:00:08.818Z,78.50
2018-04-13T00:02:35.037Z,78.60
2018-04-13T00:05:01.278Z,80.70
2018-04-13T00:07:27.779Z,79.80
2018-04-13T00:09:54.016Z,80.80
2018-04-13T00:12:20.238Z,80.50
2018-04-13T00:14:46.481Z,80.50
2018-04-13T00:17:12.700Z,80.40
2018-04-13T00:19:38.930Z,80.10
2018-04-13T00:22:05.158Z,79.10
2018-04-13T00:24:31.427Z,79.80
2018-04-13T00:26:57.645Z,80.80
2018-04-13T00:29:24.081Z,79.50
2018-04-13T00:31:50.325Z,81.50
2018-04-13T00:34:16.610Z,80.70
2018-04-13T00:36:43.592Z,79.40
2018-04-13T00:39:10.236Z,79.40
2018-04-13T00:41:36.475Z,81.70
2018-04-13T00:44:02.709Z,78.90
2018-04-13T00:46:28.936Z,78.80
2018-04-13T00:48:55.919Z,79.30
2018-04-13T00:51:22.129Z,79.50
2018-04-13T00:53:49.098Z,78.20
2018-04-13T00:56:15.360Z,78.20
2018-04-13T00:58:41.578Z,83.80
2018-04-13T01:01:07.789Z,80.70
2018-04-13T01:03:34.049Z,84.30
2018-04-13T01:06:00.278Z,81.80
2018-04-13T01:08:26.508Z,81.70
2018-04-13T01:10:52.741Z,80.00
2018-04-13T01:13:18.953Z,79.20
2018-04-13T01:15:45.195Z,79.80
2018-04-13T01:18:11.424Z,81.10
2018-04-13T01:20:37.652Z,79.90
2018-04-13T01:23:03.881Z,79.70
2018-04-13T01:25:30.543Z,82.40
2018-04-13T01:27:56.790Z,79.90
2018-04-13T01:30:23.748Z,84.40
2018-04-13T01:32:49.976Z,84.40
2018-04-13T01:35:16.217Z,81.00
2018-04-13T01:37:42.424Z,82.00
2018-04-13T01:40:09.744Z,81.30
2018-04-13T01:42:36.700Z,82.80
2018-04-13T01:45:03.658Z,82.70
2018-04-13T01:47:31.066Z,83.50
2018-04-13T01:49:57.284Z,83.60
2018-04-13T01:52:23.508Z,83.20
2018-04-13T01:54:49.757Z,84.00
2018-04-13T01:57:15.968Z,83.80
2018-04-13T01:59:42.190Z,83.70
2018-04-13T02:02:08.460Z,84.70
2018-04-13T02:04:34.737Z,85.20
2018-04-13T02:07:01.684Z,83.50
2018-04-13T02:09:27.895Z,83.30
2018-04-13T02:11:54.850Z,84.50
2018-04-13T02:14:21.833Z,84.10
2018-04-13T02:16:48.119Z,84.00
2018-04-13T02:19:15.063Z,83.90
2018-04-13T02:21:42.024Z,83.20
2018-04-13T02:24:08.989Z,82.90
2018-04-13T02:26:35.940Z,83.90
2018-04-13T02:29:02.401Z,83.80
2018-04-13T02:31:28.646Z,82.30
2018-04-13T02:33:54.867Z,83.10
2018-04-13T02:36:21.161Z,83.10
2018-04-13T02:38:47.366Z,83.60
2018-04-13T02:41:14.306Z,82.90
2018-04-13T02:43:41.278Z,82.60
2018-04-13T02:46:07.492Z,82.50
2018-04-13T02:48:33.785Z,83.10
2018-04-13T02:51:00.021Z,83.10
2018-04-13T02:53:26.234Z,83.00
2018-04-13T02:55:52.448Z,81.90
2018-04-13T02:58:18.680Z,83.50
2018-04-13T03:00:44.896Z,83.60
2018-04-13T03:03:11.125Z,83.10
2018-04-13T03:05:37.385Z,81.80
2018-04-13T03:08:03.639Z,82.80
2018-04-13T03:10:29.920Z,82.10
2018-04-13T03:12:56.156Z,83.10
2018-04-13T03:15:22.432Z,82.70
2018-04-13T03:17:49.414Z,81.40
2018-04-13T03:20:15.634Z,81.30
2018-04-13T03:22:41.971Z,83.30
2018-04-13T03:25:08.200Z,83.70
2018-04-13T03:27:34.466Z,82.70
2018-04-13T03:30:00.688Z,82.70
2018-04-13T03:32:26.932Z,83.30
2018-04-13T03:34:53.185Z,83.20
2018-04-13T03:37:19.397Z,82.40
2018-04-13T03:39:45.619Z,83.30
2018-04-13T03:42:11.891Z,83.10
2018-04-13T03:44:38.153Z,82.90
2018-04-13T03:47:04.780Z,82.70
2018-04-13T03:49:30.971Z,82.60
2018-04-13T03:51:57.919Z,83.30
2018-04-13T03:54:24.916Z,82.90
2018-04-13T03:56:51.126Z,82.70
2018-04-13T03:59:17.388Z,83.20
2018-04-13T04:01:43.633Z,83.40
2018-04-13T04:04:09.860Z,82.60
2018-04-13T04:06:36.104Z,82.50
2018-04-13T04:09:03.164Z,82.70
2018-04-13T04:11:30.138Z,83.00
2018-04-13T04:13:56.373Z,82.80
2018-04-13T04:16:22.674Z,82.40
2018-04-13T04:18:48.904Z,82.90
2018-04-13T04:21:27.322Z,82.80
2018-04-13T04:24:05.830Z,83.50
2018-04-13T04:26:46.229Z,82.80
2018-04-13T04:29:12.485Z,83.40
2018-04-13T04:31:38.877Z,82.20
2018-04-13T04:34:05.089Z,83.10
2018-04-13T04:36:31.315Z,83.50
2018-04-13T04:38:58.280Z,83.30
2018-04-13T04:41:24.479Z,83.20
2018-04-13T04:43:54.853Z,83.70
2018-04-13T04:46:25.129Z,83.70
2018-04-13T04:48:52.258Z,83.50
2018-04-13T04:51:18.688Z,83.40
2018-04-13T04:53:44.911Z,83.90
2018-04-13T04:56:11.108Z,84.40
2018-04-13T04:58:37.597Z,84.00
2018-04-13T05:01:03.823Z,84.00
2018-04-13T05:03:30.048Z,83.90
2018-04-13T05:05:56.359Z,84.70
2018-04-13T05:08:22.619Z,84.50
2018-04-13T05:10:49.567Z,83.10
2018-04-13T05:13:16.536Z,82.90
2018-04-13T05:15:42.862Z,82.80
2018-04-13T05:18:09.089Z,83.80
2018-04-13T05:20:35.322Z,83.60
2018-04-13T05:23:01.686Z,84.90
2018-04-13T05:25:27.904Z,84.10
2018-04-13T05:27:54.396Z,84.30
2018-04-13T05:30:21.405Z,82.10
2018-04-13T05:32:47.623Z,82.80
2018-04-13T05:35:13.936Z,83.10
2018-04-13T05:37:40.938Z,85.10
2018-04-13T05:40:07.208Z,85.10
2018-04-13T05:42:33.506Z,85.00
2018-04-13T05:44:59.710Z,82.80
2018-04-13T05:47:25.971Z,84.90
2018-04-13T05:49:52.295Z,83.90
2018-04-13T05:52:18.504Z,84.80
2018-04-13T05:54:44.755Z,85.00
2018-04-13T05:57:11.875Z,84.40
2018-04-13T05:59:38.346Z,84.40
2018-04-13T06:02:05.514Z,84.00
2018-04-13T06:04:31.721Z,84.00
2018-04-13T06:06:58.785Z,84.30
2018-04-13T06:09:25.760Z,85.20
2018-04-13T06:11:52.100Z,85.10
2018-04-13T06:14:18.320Z,84.90
2018-04-13T06:16:44.755Z,84.90
2018-04-13T06:19:10.963Z,83.80
2018-04-13T06:21:37.240Z,83.40
2018-04-13T06:24:03.491Z,84.50
2018-04-13T06:26:29.780Z,83.50
2018-04-13T06:28:55.978Z,84.90
2018-04-13T06:31:22.241Z,83.50
2018-04-13T06:33:48.469Z,83.40
2018-04-13T06:36:14.712Z,85.10
2018-04-13T06:38:41.004Z,84.00
2018-04-13T06:41:07.239Z,83.30
2018-04-13T06:43:33.489Z,84.00
2018-04-13T06:45:59.710Z,84.40
2018-04-13T06:48:26.063Z,84.10
2018-04-13T06:50:52.574Z,84.70
2018-04-13T06:53:18.795Z,83.20
2018-04-13T06:55:45.007Z,83.90
2018-04-13T06:58:11.978Z,83.30
2018-04-13T07:00:38.214Z,83.30
2018-04-13T07:03:04.684Z,83.30
2018-04-13T07:05:31.644Z,82.60
2018-04-13T07:07:57.914Z,82.50
2018-04-13T07:10:24.188Z,81.80
2018-04-13T07:12:50.451Z,82.30
2018-04-13T07:15:17.407Z,81.30
2018-04-13T07:17:43.921Z,81.40
2018-04-13T07:20:10.875Z,81.00
2018-04-13T07:22:37.111Z,80.90
2018-04-13T07:25:03.576Z,80.80
2018-04-13T07:27:29.843Z,80.20
2018-04-13T07:29:57.573Z,80.20
2018-04-13T07:32:24.806Z,80.10
2018-04-13T07:34:50.584Z,80.00
2018-04-13T07:37:16.801Z,79.80
2018-04-13T07:39:43.012Z,79.60
2018-04-13T07:42:09.220Z,79.70
2018-04-13T07:44:35.519Z,80.00
2018-04-13T07:47:02.485Z,79.70
2018-04-13T07:49:28.730Z,79.60
2018-04-13T07:51:54.931Z,79.50
2018-04-13T07:54:21.896Z,79.70
2018-04-13T07:56:48.153Z,79.70
2018-04-13T07:59:14.388Z,79.60
2018-04-13T08:01:40.741Z,79.40
2018-04-13T08:04:06.916Z,79.30
2018-04-13T08:06:33.148Z,79.20
2018-04-13T08:08:59.360Z,79.10
2018-04-13T08:11:26.117Z,79.00
2018-04-13T08:13:52.371Z,78.90
2018-04-13T08:16:18.661Z,78.90
2018-04-13T08:18:44.907Z,78.70
2018-04-13T08:21:11.187Z,78.80
2018-04-13T08:23:38.221Z,78.60
2018-04-13T08:26:04.473Z,78.60
2018-04-13T08:28:31.945Z,78.80
2018-04-13T08:30:58.421Z,78.50
2018-04-13T08:33:25.130Z,78.40
2018-04-13T08:35:51.952Z,78.10
2018-04-13T08:38:18.923Z,78.10
2018-04-13T08:40:45.141Z,78.00
2018-04-13T08:43:12.201Z,77.80
2018-04-13T08:45:39.260Z,77.80
2018-04-13T08:48:05.660Z,77.70
2018-04-13T08:50:32.734Z,76.80
2018-04-13T08:52:59.079Z,77.40
2018-04-13T08:55:25.617Z,77.40
2018-04-13T08:57:51.869Z,77.40
2018-04-13T09:00:18.083Z,77.40
2018-04-13T09:02:44.500Z,77.30
2018-04-13T09:05:10.705Z,77.00
2018-04-13T09:07:37.677Z,77.00
2018-04-13T09:10:04.396Z,76.90
2018-04-13T09:12:31.348Z,77.50
2018-04-13T09:14:57.609Z,77.50
2018-04-13T09:17:23.876Z,77.60
2018-04-13T09:19:50.212Z,77.40
2018-04-13T09:22:16.480Z,77.20
2018-04-13T09:24:42.712Z,77.10
2018-04-13T09:27:08.932Z,77.10
2018-04-13T09:29:35.293Z,77.10
2018-04-13T09:32:02.341Z,77.10
2018-04-13T09:34:28.861Z,77.10
2018-04-13T09:36:55.168Z,77.10
2018-04-13T09:39:21.391Z,77.10
2018-04-13T09:41:48.405Z,77.20
2018-04-13T09:44:14.627Z,77.20
2018-04-13T09:46:40.903Z,77.10
2018-04-13T09:49:07.320Z,77.30
2018-04-13T09:51:34.280Z,77.30
2018-04-13T09:54:01.230Z,77.30
2018-04-13T09:56:27.481Z,77.10
2018-04-13T09:58:53.916Z,77.30
2018-04-13T10:01:20.164Z,77.40
2018-04-13T10:03:49.287Z,77.50
2018-04-13T10:06:15.899Z,77.80
2018-04-13T10:08:42.113Z,77.90
2018-04-13T10:11:08.375Z,80.10
2018-04-13T10:13:34.770Z,77.80
2018-04-13T10:16:01.024Z,77.90
2018-04-13T10:18:27.328Z,78.80
2018-04-13T10:20:53.824Z,79.10
2018-04-13T10:23:21.314Z,80.90
2018-04-13T10:25:47.554Z,80.80
2018-04-13T10:28:13.850Z,79.30
2018-04-13T10:30:40.848Z,81.00
2018-04-13T10:33:07.077Z,80.90
2018-04-13T10:38:25.236Z,81.80
2018-04-13T10:40:51.585Z,82.50
2018-04-13T10:43:17.846Z,80.00
2018-04-13T10:45:44.869Z,81.30
2018-04-13T10:48:11.096Z,81.30
2018-04-13T10:50:37.377Z,79.90
2018-04-13T10:53:03.602Z,81.80
2018-04-13T10:55:29.945Z,81.80
2018-04-13T10:57:56.185Z,80.80
2018-04-13T11:00:22.400Z,82.00
2018-04-13T11:02:48.607Z,83.30
2018-04-13T11:05:22.521Z,81.60
2018-04-13T11:07:49.675Z,82.40
2018-04-13T11:10:16.202Z,82.40
2018-04-13T11:12:42.422Z,83.70
2018-04-13T11:15:09.952Z,83.10
2018-04-13T11:17:36.151Z,83.00
2018-04-13T11:20:02.475Z,85.90
2018-04-13T11:22:28.726Z,85.20
2018-04-13T11:24:55.006Z,83.00
2018-04-13T11:27:22.906Z,82.30
2018-04-13T11:29:49.272Z,82.30
2018-04-13T11:32:16.296Z,81.40
2018-04-13T11:34:42.538Z,81.40
2018-04-13T11:37:08.860Z,83.10
2018-04-13T11:39:35.125Z,85.00
2018-04-13T11:42:01.334Z,84.70
2018-04-13T11:44:28.615Z,85.40
2018-04-13T11:46:56.779Z,84.60
2018-04-13T11:49:23.024Z,84.50
2018-04-13T11:51:50.222Z,83.60
2018-04-13T11:54:16.468Z,83.60
2018-04-13T11:56:42.713Z,84.40
2018-04-13T11:59:09.746Z,84.50
2018-04-13T12:01:36.028Z,84.50
2018-04-13T12:04:02.264Z,85.10
2018-04-13T12:06:28.671Z,84.70
2018-04-13T12:08:55.637Z,84.40
2018-04-13T12:11:21.961Z,84.40
2018-04-13T12:13:49.042Z,85.00
2018-04-13T12:16:15.301Z,85.00
2018-04-13T12:18:42.221Z,83.80
2018-04-13T12:21:08.444Z,83.30
2018-04-13T12:23:34.689Z,81.60
2018-04-13T12:26:01.160Z,85.60
2018-04-13T12:28:28.346Z,86.10
2018-04-13T12:30:54.718Z,86.00
2018-04-13T12:33:20.985Z,84.20
2018-04-13T12:36:17.840Z,81.30
2018-04-13T12:38:47.105Z,81.50
2018-04-13T12:41:13.577Z,81.40
2018-04-13T12:43:40.587Z,81.50
2018-04-13T12:46:07.228Z,81.50
2018-04-13T12:48:33.560Z,82.30
2018-04-13T12:51:01.514Z,81.40
2018-04-13T12:53:28.133Z,80.50
2018-04-13T12:55:54.444Z,79.80
2018-04-13T12:58:20.703Z,82.00
2018-04-13T13:00:46.947Z,80.20
2018-04-13T13:03:13.152Z,80.40
2018-04-13T13:05:39.402Z,80.00
2018-04-13T13:08:05.631Z,79.70
2018-04-13T13:10:31.922Z,79.80
2018-04-13T13:12:58.123Z,79.70
2018-04-13T13:15:25.105Z,80.20
2018-04-13T13:17:51.344Z,80.10
2018-04-13T13:20:17.617Z,81.50
2018-04-13T13:22:43.913Z,79.80
2018-04-13T13:25:10.155Z,79.90
2018-04-13T13:27:36.507Z,80.40
2018-04-13T13:30:02.814Z,81.10
2018-04-13T13:32:29.124Z,81.60
2018-04-13T13:34:55.618Z,80.60
2018-04-13T13:37:22.824Z,79.90
2018-04-13T13:39:49.041Z,79.90
2018-04-13T13:42:15.299Z,81.70
2018-04-13T13:44:45.745Z,81.00
2018-04-13T13:47:12.276Z,81.60
2018-04-13T13:49:38.546Z,79.90
2018-04-13T13:52:04.743Z,80.00
2018-04-13T13:54:30.999Z,80.00
2018-04-13T13:56:57.952Z,78.90
2018-04-13T13:59:24.321Z,78.90
2018-04-13T14:01:50.733Z,81.20
2018-04-13T14:04:17.129Z,79.20
2018-04-13T14:06:44.121Z,81.30
2018-04-13T14:09:10.364Z,81.20
2018-04-13T14:11:36.583Z,79.90
2018-04-13T14:14:03.048Z,79.70
2018-04-13T14:16:29.456Z,79.00
2018-04-13T14:18:55.788Z,79.60
2018-04-13T14:21:22.817Z,80.40
2018-04-13T14:23:49.052Z,79.30
2018-04-13T14:26:15.308Z,82.20
2018-04-13T14:28:41.525Z,79.70
2018-04-13T14:31:07.834Z,80.40
2018-04-13T14:33:34.085Z,80.60
2018-04-13T14:36:00.402Z,80.40
2018-04-13T14:38:26.664Z,80.80
2018-04-13T14:40:53.063Z,81.60
2018-04-13T14:43:19.368Z,80.00
2018-04-13T14:45:45.714Z,80.40
2018-04-13T14:48:11.947Z,80.60
2018-04-13T14:50:38.172Z,82.20
2018-04-13T14:53:04.782Z,81.30
2018-04-13T14:55:31.789Z,83.80
2018-04-13T14:57:58.020Z,83.80
2018-04-13T15:00:24.349Z,82.70
2018-04-13T15:02:50.623Z,83.00
2018-04-13T15:05:17.697Z,82.70
2018-04-13T15:07:44.057Z,82.60
2018-04-13T15:10:10.362Z,84.00
2018-04-13T15:12:36.672Z,83.00
2018-04-13T15:15:03.798Z,83.50
2018-04-13T15:17:30.822Z,84.90
2018-04-13T15:19:57.121Z,85.00
2018-04-13T15:22:23.396Z,86.10
2018-04-13T15:24:49.744Z,84.40
2018-04-13T15:27:15.975Z,85.50
2018-04-13T15:29:42.210Z,87.60
2018-04-13T15:32:09.213Z,83.70
2018-04-13T15:34:35.479Z,83.70
2018-04-13T15:37:01.732Z,83.40
2018-04-13T15:39:28.765Z,83.40
2018-04-13T15:41:55.833Z,85.60
2018-04-13T15:44:22.481Z,85.60
2018-04-13T15:46:48.728Z,83.80
2018-04-13T15:49:15.028Z,83.70
2018-04-13T15:51:41.353Z,82.80
2018-04-13T15:54:08.382Z,83.70
2018-04-13T15:56:34.640Z,83.80
2018-04-13T15:59:01.032Z,84.90
2018-04-13T16:01:27.425Z,85.70
2018-04-13T16:03:53.720Z,83.70
2018-04-13T16:06:20.705Z,84.30
2018-04-13T16:08:46.982Z,84.30
2018-04-13T16:11:14.379Z,83.80
2018-04-13T16:13:40.680Z,83.60
2018-04-13T16:16:07.702Z,83.80
2018-04-13T16:18:34.035Z,83.80
2018-04-13T16:21:00.337Z,83.90
2018-04-13T16:23:26.592Z,85.30
2018-04-13T16:25:53.639Z,84.70
2018-04-13T16:28:19.865Z,84.60
2018-04-13T16:30:46.089Z,83.80
2018-04-13T16:33:12.860Z,85.10
2018-04-13T16:35:39.892Z,88.20
2018-04-13T16:38:06.147Z,87.20
2018-04-13T16:40:33.152Z,84.10
2018-04-13T16:42:59.385Z,84.80
2018-04-13T16:45:25.979Z,85.20
2018-04-13T16:47:52.252Z,84.10
2018-04-13T16:50:18.890Z,84.80
2018-04-13T16:52:45.155Z,84.40
2018-04-13T16:55:12.203Z,87.20
2018-04-13T16:57:39.276Z,86.10
2018-04-13T17:00:05.581Z,86.10
2018-04-13T17:02:32.559Z,87.10
2018-04-13T17:04:58.821Z,87.10
2018-04-13T17:07:25.133Z,86.30
2018-04-13T17:09:51.402Z,87.20
2018-04-13T17:12:17.668Z,87.20
2018-04-13T17:14:44.036Z,84.90
2018-04-13T17:17:10.282Z,85.00
2018-04-13T17:19:36.661Z,86.10
2018-04-13T17:22:02.969Z,86.00
2018-04-13T17:24:30.059Z,84.80
2018-04-13T17:26:56.389Z,84.80
2018-04-13T17:29:22.669Z,88.30
2018-04-13T17:31:49.191Z,85.20
2018-04-13T17:34:15.510Z,85.10
2018-04-13T17:36:41.847Z,86.10
2018-04-13T17:39:08.505Z,89.90
2018-04-13T17:41:34.752Z,87.00
2018-04-13T17:44:01.816Z,85.70
2018-04-13T17:46:28.095Z,85.60
2018-04-13T17:48:54.374Z,84.40
2018-04-13T17:51:20.656Z,87.80
2018-04-13T17:53:46.973Z,85.40
2018-04-13T17:56:15.717Z,85.70
2018-04-13T17:58:42.724Z,85.20
2018-04-13T18:01:09.124Z,85.20
2018-04-13T18:03:35.421Z,86.00
2018-04-13T18:06:02.413Z,85.90
2018-04-13T18:08:28.852Z,85.80
2018-04-13T18:10:55.273Z,87.00
2018-04-13T18:13:21.581Z,86.20
2018-04-13T18:15:48.553Z,86.90
2018-04-13T18:18:14.807Z,86.90
2018-04-13T18:20:41.147Z,87.70
2018-04-13T18:23:07.406Z,86.90
2018-04-13T18:25:34.460Z,86.80
2018-04-13T18:28:01.581Z,88.00
2018-04-13T18:30:28.704Z,86.90
2018-04-13T18:32:54.968Z,86.80
2018-04-13T18:35:21.965Z,86.80
2018-04-13T18:37:48.240Z,86.80
2018-04-13T18:40:14.548Z,86.90
2018-04-13T18:42:41.492Z,85.60
2018-04-13T18:45:07.811Z,87.70
2018-04-13T18:47:34.538Z,86.10
2018-04-13T18:50:00.931Z,86.60
2018-04-13T18:52:27.305Z,86.40
2018-04-13T18:54:54.362Z,86.80
2018-04-13T18:57:20.615Z,86.80
2018-04-13T18:59:46.970Z,87.40
2018-04-13T19:02:13.361Z,86.80
2018-04-13T19:04:39.603Z,86.80
2018-04-13T19:07:06.029Z,86.80
2018-04-13T19:09:32.289Z,87.60
2018-04-13T19:11:58.531Z,86.80
2018-04-13T19:14:24.803Z,86.80
2018-04-13T19:16:52.033Z,87.50
2018-04-13T19:19:19.201Z,86.80
2018-04-13T19:21:47.744Z,86.70
2018-04-13T19:24:15.448Z,87.80
2018-04-13T19:26:42.552Z,87.80
2018-04-13T19:29:09.517Z,86.70
2018-04-13T19:31:40.021Z,86.60
2018-04-13T19:34:25.466Z,86.50
2018-04-13T19:36:55.098Z,86.70
2018-04-13T19:39:21.406Z,86.10
2018-04-13T19:41:48.184Z,86.20
2018-04-13T19:44:28.667Z,87.20
2018-04-13T19:46:55.012Z,88.20
2018-04-13T19:49:21.977Z,86.50
2018-04-13T19:51:48.203Z,86.60
2018-04-13T19:54:17.844Z,86.60
2018-04-13T19:56:44.083Z,86.60
2018-04-13T19:59:10.354Z,87.20
2018-04-13T20:01:37.472Z,88.50
2018-04-13T20:04:03.881Z,88.50
2018-04-13T20:06:30.225Z,88.20
2018-04-13T20:08:56.482Z,88.30
2018-04-13T20:11:22.709Z,86.60
2018-04-13T20:13:48.950Z,88.20
2018-04-13T20:16:21.070Z,87.90
2018-04-13T20:18:47.393Z,88.10
2018-04-13T20:21:13.640Z,87.70
2018-04-13T20:23:39.909Z,88.20
2018-04-13T20:26:06.237Z,88.10
2018-04-13T20:28:33.276Z,88.80
2018-04-13T20:30:59.522Z,88.70
2018-04-13T20:33:26.557Z,88.90
2018-04-13T20:35:52.802Z,88.90
2018-04-13T20:38:19.887Z,88.90
2018-04-13T20:40:46.186Z,89.60
2018-04-13T20:43:13.159Z,87.70
2018-04-13T20:45:39.498Z,87.70
2018-04-13T20:48:05.957Z,88.30
2018-04-13T20:50:32.220Z,88.20
2018-04-13T20:52:59.190Z,89.20
2018-04-13T20:55:25.407Z,88.50
2018-04-13T20:57:52.376Z,88.20
2018-04-13T21:00:19.072Z,88.10
2018-04-13T21:02:52.244Z,88.30
2018-04-13T21:05:18.495Z,88.10
2018-04-13T21:07:44.733Z,88.20
2018-04-13T21:10:11.772Z,88.10
2018-04-13T21:12:38.077Z,88.10
2018-04-13T21:15:04.395Z,87.80
2018-04-13T21:17:30.601Z,87.70
2018-04-13T21:19:56.826Z,88.20
2018-04-13T21:22:23.085Z,87.80
2018-04-13T21:24:49.360Z,87.90
2018-04-13T21:27:16.081Z,87.90
2018-04-13T21:29:42.392Z,88.80
2018-04-13T21:32:08.696Z,88.30
2018-04-13T21:34:34.949Z,88.20
2018-04-13T21:37:01.255Z,87.90
2018-04-13T21:39:27.544Z,88.30
2018-04-13T21:41:53.856Z,88.20
2018-04-13T21:44:20.172Z,88.20
2018-04-13T21:46:46.458Z,88.20
2018-04-13T21:49:12.833Z,87.90
2018-04-13T21:51:39.120Z,88.30
2018-04-13T21:54:06.106Z,88.20
2018-04-13T21:56:32.380Z,88.10
2018-04-13T21:58:58.634Z,88.60
2018-04-13T22:01:24.886Z,88.00
2018-04-13T22:03:51.119Z,88.30
2018-04-13T22:06:17.352Z,89.00
2018-04-13T22:08:43.591Z,88.00
2018-04-13T22:11:09.811Z,89.40
2018-04-13T22:13:36.033Z,88.60
2018-04-13T22:16:02.291Z,88.30
2018-04-13T22:18:28.621Z,88.90
2018-04-13T22:20:54.863Z,88.50
2018-04-13T22:23:21.091Z,88.50
2018-04-13T22:25:47.320Z,88.60
2018-04-13T22:28:13.620Z,88.80
2018-04-13T22:30:40.620Z,88.50
2018-04-13T22:33:07.702Z,88.10
2018-04-13T22:35:33.931Z,88.00
2018-04-13T22:38:00.301Z,88.10
2018-04-13T22:40:26.536Z,88.30
2018-04-13T22:42:52.812Z,88.10
2018-04-13T22:45:19.053Z,88.20
2018-04-13T22:47:45.281Z,88.50
2018-04-13T22:50:11.659Z,88.60
2018-04-13T22:52:37.832Z,88.70
2018-04-13T22:55:04.179Z,88.30
2018-04-13T22:57:30.422Z,89.00
2018-04-13T22:59:56.664Z,88.90
2018-04-13T23:02:22.904Z,88.80
2018-04-13T23:04:49.189Z,88.70
2018-04-13T23:07:15.426Z,88.50
2018-04-13T23:09:41.648Z,88.30
2018-04-13T23:12:07.945Z,88.10
2018-04-13T23:14:34.940Z,88.50
2018-04-13T23:17:01.164Z,88.70
2018-04-13T23:19:27.559Z,88.60
2018-04-13T23:21:54.541Z,88.60
2018-04-13T23:24:20.815Z,88.60
2018-04-13T23:26:47.041Z,88.40
2018-04-13T23:29:13.373Z,88.40
2018-04-13T23:31:39.657Z,89.20
2018-04-13T23:34:05.938Z,89.20
2018-04-13T23:36:32.186Z,88.90
2018-04-13T23:38:59.227Z,88.90
2018-04-13T23:41:26.265Z,88.50
2018-04-13T23:43:53.269Z,88.40
2018-04-13T23:46:19.538Z,88.30
2018-04-13T23:48:45.796Z,88.60
2018-04-13T23:51:12.783Z,89.30
2018-04-13T23:53:39.028Z,89.30
2018-04-13T23:56:05.303Z,88.60
2018-04-13T23:58:31.615Z,88.80
